Airfield :
LOGIN :

Register | Disclaimer

   EN    FR    IT 

 










Legend :    VFR   Marginal VFR   IFR   Intensive IFR   Very Intensive IFR
Visi :
Ceiling :
>= 8 km
>= 3000ft
5 to 8 km
1000 to 3000 ft
1500m to 5 km
500 to 1000 ft
800 to 1500m
200 to 500 ft
< 800m
< 200 ft
Symbols :   Thunderstorms  Fog  Heavy snow  Heavy precipitations  Wind > 20 kt
SIGMETs :     Misc.  Thunderstorms  Icing  Turbulence  Mountain Waves  Volcanic Ashes







- Airport Elevation : 242 ft
- IATA code : DUB


EIDW - Dublin

CURRENT METAR :
  • 162200Z 23031G50KT 9999 -SHRA FEW015 SCT020 BKN040 13/09 Q1001 TEMPO 22035G55KT

EXPIRED METARs :
  • 162130Z 23029G47KT 9999 FEW015 BKN020 13/09 Q1000 TEMPO 22035G55KT
  • 162100Z 23028G42KT 9999 FEW015 BKN020 13/09 Q0999 TEMPO 22035G55KT
  • 162030Z 22026G36KT 9999 FEW015 BKN020 13/09 Q0998 TEMPO 22035G55KT
  • 162000Z 22024G37KT 9999 FEW015 BKN020 13/09 Q0997 TEMPO 22035G55KT
  • 161930Z 21024G37KT 9999 FEW015 BKN022 BKN030 13/09 Q0996 TEMPO 22035G55KT

TAF TAF EIDW
Valid from the 16 at 18:00 until the 17 at 18:00 UTC


161700Z 1618/1718 21030G46KT 9999 SCT020 BKN030
TEMPO 1618/1621 5000 -RA BKN015
TEMPO 1619/1623 23035G55KT
BECMG 1700/1702 24025G35KT
BECMG 1704/1706 24015G25KT
BECMG 1706/1709 24016KT
BECMG 1716/1718 26007KT
No reported NOTAMs for that airfield.
2 SIGMETs reported for the Shannon FIR (EISN) :
 
Severe mountain waves
EISN SIGMET 08 VALID 162100/170100 EINN
EISN SHANNON FIR SEV MTW FCST E OF W01030 FL050/200 STNR NC=
Severe turbulence
EISN SIGMET 07 VALID 162100/170100 EINN
EISN SHANNON FIR SEV TURB FCST E OF W01030 SFC/FL060 MOV NE AT 30KT WKN=



MET'MAP, your aeronautical weather chart ! - Copyright ORBIFLY December 2007 - Disclaimer

ORBIFLY MET'MAP TEAM :

Programming & Development : Alexandra Zaïnal
Concept & Development : Baudouin d'Aumeries
Co-Development & Prog : Marc-Olivier Méhu
Technical & hardware support : Manuel Goepfert

Contact : metmap@orbifly.com




SOURCES & CREDITS :

   NOAA